Disney Magic — C6PT7 — position and weather

sailwx.info

Track history (hours):
 
Tides and Currents Weather Stations Pressure Air Temp Water Temp Dewpoint Dewpoint Depression Visibility Wind Speed Wind Dir Waves Ship Positions

Disney Magic

Last reported at 2019-Feb-14 01:50 UTC. Time now 2019-Feb-16 03:02 UTC.
Position N 26°13' W 079°13'.

Type: Passenger vessel. MMSI: 308516000.

Date/timePositionNaut miles runAvg speedWind from/ knotsBaromVisibWave heightAir tempDewpointWater temp
2019-Feb-14 01:50N 26°13' W 079°13'515.8
2019-Feb-14 01:30N 26°10' W 079°18'815.9
2019-Feb-14 01:01N 26°06' W 079°26'816.1
2019-Feb-14 00:30N 26°02' W 079°34'816.1
2019-Feb-14 00:00N 25°58' W 079°41'816.2
2019-Feb-13 23:30N 25°54' W 079°49'816.5
2019-Feb-13 23:00N 25°50' W 079°57'815.6
2019-Feb-13 22:31N 25°46' W 080°05'5 9.2
2019-Feb-13 22:00N 25°47' W 080°10'1 1.4
2019-Feb-13 21:28N 25°47' W 080°10'0 0.0
2019-Feb-13 20:58N 25°47' W 080°10'0 0.0
2019-Feb-13 20:28N 25°47' W 080°10'0 0.0
2019-Feb-13 19:58N 25°47' W 080°10'0 0.0
2019-Feb-13 19:28N 25°47' W 080°10'0 0.0
2019-Feb-13 18:58N 25°47' W 080°10'0 0.0
2019-Feb-13 18:28N 25°47' W 080°10'0 0.0
2019-Feb-13 17:58N 25°47' W 080°10'0 0.0
2019-Feb-13 17:28N 25°47' W 080°10'0 0.0
2019-Feb-13 16:58N 25°47' W 080°10'0 0.0
2019-Feb-13 16:28N 25°47' W 080°10'0 0.0
2019-Feb-13 15:58N 25°47' W 080°10'0 0.0
2019-Feb-13 15:28N 25°47' W 080°10'0 0.0
2019-Feb-13 14:58N 25°47' W 080°10'0 0.0
2019-Feb-13 14:28N 25°47' W 080°10'0 0.0
2019-Feb-13 13:58N 25°47' W 080°10'0 0.0
2019-Feb-13 13:28N 25°47' W 080°10'0 0.0
2019-Feb-13 12:58N 25°47' W 080°10'0 0.0
2019-Feb-13 12:28N 25°47' W 080°10'0 0.0
2019-Feb-13 11:58N 25°47' W 080°10'0 0.0
2019-Feb-13 11:28N 25°47' W 080°10'0 0.0
2019-Feb-13 10:58N 25°47' W 080°10'1 1.2
2019-Feb-13 10:30N 25°47' W 080°11'3 6.3
2019-Feb-13 10:00N 25°46' W 080°08'611.3
2019-Feb-13 09:30N 25°47' W 080°02'714.0
2019-Feb-13 09:00N 25°51' W 079°55'713.4
2019-Feb-13 08:31N 25°54' W 079°49'4 7.8
2019-Feb-13 08:01N 25°56' W 079°45'4 7.4
2019-Feb-13 07:31N 25°58' W 079°42'4 7.2
2019-Feb-13 07:01N 26°01' W 079°39'4 7.7
2019-Feb-13 06:31N 26°03' W 079°35'4 8.0
2019-Feb-13 06:01N 26°05' W 079°31'4 8.0
2019-Feb-13 05:30N 26°08' W 079°28'4 8.2
2019-Feb-13 05:00N 26°11' W 079°25'4 7.7
2019-Feb-13 04:30N 26°13' W 079°22'4 7.8
2019-Feb-13 04:00N 26°16' W 079°19'62 2.6
2019-Feb-12 04:00N 26°00' W 078°12'66 1.4 120 / 161021.210.8 24.022.524.9
2019-Feb-10 05:28N 25°51' W 079°24'1021.7
2019-Feb-10 05:00N 25°42' W 079°30'1121.9
2019-Feb-10 04:30N 25°33' W 079°37'1121.9
2019-Feb-10 04:00N 25°24' W 079°43'1112.0
2019-Feb-10 04:00N 25°24' W 079°42'18 0.6 070 / 211024.827.0 24.019.325.9
2019-Feb-09 00:48N 25°16' W 079°59'514.8
2019-Feb-09 00:29N 25°20' W 079°59'715.3
2019-Feb-09 00:00N 25°28' W 079°58'714.8
2019-Feb-08 23:30N 25°35' W 079°58'714.1
2019-Feb-08 23:00N 25°42' W 079°59'612.7
2019-Feb-08 22:30N 25°46' W 080°05'5 9.4
2019-Feb-08 22:00N 25°47' W 080°10'0 0.8
2019-Feb-08 21:30N 25°47' W 080°10'0 0.0
2019-Feb-08 20:57N 25°47' W 080°10'0 0.0
2019-Feb-08 20:30N 25°47' W 080°10'0 0.0
2019-Feb-08 20:00N 25°47' W 080°10'0 0.0
2019-Feb-08 19:30N 25°47' W 080°10'0 0.0
2019-Feb-08 19:00N 25°47' W 080°10'0 0.0
2019-Feb-08 18:30N 25°47' W 080°10'0 0.0
2019-Feb-08 18:00N 25°47' W 080°10'0 0.0
2019-Feb-08 17:30N 25°47' W 080°10'0 0.0
2019-Feb-08 17:00N 25°47' W 080°10'0 0.0
2019-Feb-08 16:30N 25°47' W 080°10'0 0.0
2019-Feb-08 16:00N 25°47' W 080°10'0 0.0
2019-Feb-08 15:30N 25°47' W 080°10'0 0.0
2019-Feb-08 15:00N 25°47' W 080°10'0 0.0
2019-Feb-08 14:30N 25°47' W 080°10'0 0.0
2019-Feb-08 14:00N 25°47' W 080°10'0 0.0
2019-Feb-08 13:30N 25°47' W 080°10'0 0.0
2019-Feb-08 13:00N 25°47' W 080°10'0 0.0
2019-Feb-08 12:30N 25°47' W 080°10'0 0.0
2019-Feb-08 12:00N 25°47' W 080°10'0 0.0
2019-Feb-08 11:30N 25°47' W 080°10'0 0.0
2019-Feb-08 11:00N 25°47' W 080°10'0 0.0
2019-Feb-08 10:30N 25°47' W 080°10'1 1.1
2019-Feb-08 10:01N 25°47' W 080°11'3 5.7
2019-Feb-08 09:30N 25°46' W 080°08'510.0
2019-Feb-08 09:00N 25°47' W 080°03'4 7.4
2019-Feb-08 08:30N 25°49' W 079°59'4 7.6
2019-Feb-08 08:00N 25°51' W 079°56'4 7.3
2019-Feb-08 07:31N 25°53' W 079°52'4 7.3
2019-Feb-08 07:00N 25°55' W 079°49'4 7.2
2019-Feb-08 06:30N 25°56' W 079°45'4 7.4
2019-Feb-08 06:00N 25°58' W 079°42'4 7.5
2019-Feb-08 05:30N 26°00' W 079°38'4 7.7
2019-Feb-08 05:00N 26°02' W 079°35'714.2
2019-Feb-08 04:30N 26°06' W 079°28'816.2
2019-Feb-08 04:01N 26°11' W 079°21'16 0.8
2019-Feb-07 06:33N 25°55' W 079°23'122.8
2019-Feb-07 06:30N 25°54' W 079°24'1123.0
2019-Feb-07 06:00N 25°43' W 079°27'1122.8
2019-Feb-07 05:30N 25°32' W 079°31'7012.7
2019-Feb-07 00:00N 24°30' W 080°06'43818.0 050 / 131020.310.8 23.018.326.1
2019-Feb-05 23:40N 20°41' W 086°51'422.4
2019-Feb-05 23:30N 20°38' W 086°53'815.8
2019-Feb-05 23:00N 20°31' W 086°57'1 1.4
2019-Feb-05 22:28N 20°31' W 086°57'0 0.0
2019-Feb-05 21:58N 20°31' W 086°57'0 0.0
2019-Feb-05 21:28N 20°31' W 086°57'0 0.0
2019-Feb-05 20:58N 20°31' W 086°57'0 0.0
2019-Feb-05 20:28N 20°31' W 086°57'0 0.0
2019-Feb-05 19:58N 20°31' W 086°57'0 0.0
2019-Feb-05 19:28N 20°31' W 086°57'0 0.0
2019-Feb-05 18:58N 20°31' W 086°57'0 0.0
2019-Feb-05 18:28N 20°31' W 086°57'0 0.0
2019-Feb-05 17:55N 20°31' W 086°57'0 0.0
2019-Feb-05 17:28N 20°31' W 086°57'0 0.0
2019-Feb-05 16:58N 20°31' W 086°57'0 0.0
2019-Feb-05 16:28N 20°31' W 086°57'0 0.0
2019-Feb-05 15:58N 20°31' W 086°57'0 0.0
2019-Feb-05 14:13N 20°31' W 086°57'0 0.0
2019-Feb-05 13:58N 20°31' W 086°57'0 0.0
2019-Feb-05 13:28N 20°31' W 086°57'0 0.0
2019-Feb-05 12:58N 20°31' W 086°57'0 0.0
2019-Feb-05 12:28N 20°31' W 086°57'0 0.0
2019-Feb-05 11:58N 20°31' W 086°57'2 3.3
2019-Feb-05 11:30N 20°32' W 086°57'4 7.3
2019-Feb-05 11:00N 20°36' W 086°56'4 7.3
2019-Feb-05 10:30N 20°38' W 086°53'4 7.5
2019-Feb-05 09:58N 20°41' W 086°50'  
Track history (hours):
 
Tides and Currents Weather Stations Pressure Air Temp Water Temp Dewpoint Dewpoint Depression Visibility Wind Speed Wind Dir Waves Ship Positions

Disney Magic

Last reported at 2019-Feb-14 01:50 UTC. Time now 2019-Feb-16 03:02 UTC.
Position N 26°13' W 079°13'.

Type: Passenger vessel. MMSI: 308516000.

Date/timePositionNaut miles runAvg speedWind from/ knotsBaromVisibWave heightAir tempDewpointWater temp
2019-Feb-14 01:50N 26°13' W 079°13'515.8
2019-Feb-14 01:30N 26°10' W 079°18'815.9
2019-Feb-14 01:01N 26°06' W 079°26'816.1
2019-Feb-14 00:30N 26°02' W 079°34'816.1
2019-Feb-14 00:00N 25°58' W 079°41'816.2
2019-Feb-13 23:30N 25°54' W 079°49'816.5
2019-Feb-13 23:00N 25°50' W 079°57'815.6
2019-Feb-13 22:31N 25°46' W 080°05'5 9.2
2019-Feb-13 22:00N 25°47' W 080°10'1 1.4
2019-Feb-13 21:28N 25°47' W 080°10'0 0.0
2019-Feb-13 20:58N 25°47' W 080°10'0 0.0
2019-Feb-13 20:28N 25°47' W 080°10'0 0.0
2019-Feb-13 19:58N 25°47' W 080°10'0 0.0
2019-Feb-13 19:28N 25°47' W 080°10'0 0.0
2019-Feb-13 18:58N 25°47' W 080°10'0 0.0
2019-Feb-13 18:28N 25°47' W 080°10'0 0.0
2019-Feb-13 17:58N 25°47' W 080°10'0 0.0
2019-Feb-13 17:28N 25°47' W 080°10'0 0.0
2019-Feb-13 16:58N 25°47' W 080°10'0 0.0
2019-Feb-13 16:28N 25°47' W 080°10'0 0.0
2019-Feb-13 15:58N 25°47' W 080°10'0 0.0
2019-Feb-13 15:28N 25°47' W 080°10'0 0.0
2019-Feb-13 14:58N 25°47' W 080°10'0 0.0
2019-Feb-13 14:28N 25°47' W 080°10'0 0.0
2019-Feb-13 13:58N 25°47' W 080°10'0 0.0
2019-Feb-13 13:28N 25°47' W 080°10'0 0.0
2019-Feb-13 12:58N 25°47' W 080°10'0 0.0
2019-Feb-13 12:28N 25°47' W 080°10'0 0.0
2019-Feb-13 11:58N 25°47' W 080°10'0 0.0
2019-Feb-13 11:28N 25°47' W 080°10'0 0.0
2019-Feb-13 10:58N 25°47' W 080°10'1 1.2
2019-Feb-13 10:30N 25°47' W 080°11'3 6.3
2019-Feb-13 10:00N 25°46' W 080°08'611.3
2019-Feb-13 09:30N 25°47' W 080°02'714.0
2019-Feb-13 09:00N 25°51' W 079°55'713.4
2019-Feb-13 08:31N 25°54' W 079°49'4 7.8
2019-Feb-13 08:01N 25°56' W 079°45'4 7.4
2019-Feb-13 07:31N 25°58' W 079°42'4 7.2
2019-Feb-13 07:01N 26°01' W 079°39'4 7.7
2019-Feb-13 06:31N 26°03' W 079°35'4 8.0
2019-Feb-13 06:01N 26°05' W 079°31'4 8.0
2019-Feb-13 05:30N 26°08' W 079°28'4 8.2
2019-Feb-13 05:00N 26°11' W 079°25'4 7.7
2019-Feb-13 04:30N 26°13' W 079°22'4 7.8
2019-Feb-13 04:00N 26°16' W 079°19'62 2.6
2019-Feb-12 04:00N 26°00' W 078°12'66 1.4 120 / 161021.210.8 24.022.524.9
2019-Feb-10 05:28N 25°51' W 079°24'1021.7
2019-Feb-10 05:00N 25°42' W 079°30'1121.9
2019-Feb-10 04:30N 25°33' W 079°37'1121.9
2019-Feb-10 04:00N 25°24' W 079°43'1112.0
2019-Feb-10 04:00N 25°24' W 079°42'18 0.6 070 / 211024.827.0 24.019.325.9
2019-Feb-09 00:48N 25°16' W 079°59'514.8
2019-Feb-09 00:29N 25°20' W 079°59'715.3
2019-Feb-09 00:00N 25°28' W 079°58'714.8
2019-Feb-08 23:30N 25°35' W 079°58'714.1
2019-Feb-08 23:00N 25°42' W 079°59'612.7
2019-Feb-08 22:30N 25°46' W 080°05'5 9.4
2019-Feb-08 22:00N 25°47' W 080°10'0 0.8
2019-Feb-08 21:30N 25°47' W 080°10'0 0.0
2019-Feb-08 20:57N 25°47' W 080°10'0 0.0
2019-Feb-08 20:30N 25°47' W 080°10'0 0.0
2019-Feb-08 20:00N 25°47' W 080°10'0 0.0
2019-Feb-08 19:30N 25°47' W 080°10'0 0.0
2019-Feb-08 19:00N 25°47' W 080°10'0 0.0
2019-Feb-08 18:30N 25°47' W 080°10'0 0.0
2019-Feb-08 18:00N 25°47' W 080°10'0 0.0
2019-Feb-08 17:30N 25°47' W 080°10'0 0.0
2019-Feb-08 17:00N 25°47' W 080°10'0 0.0
2019-Feb-08 16:30N 25°47' W 080°10'0 0.0
2019-Feb-08 16:00N 25°47' W 080°10'0 0.0
2019-Feb-08 15:30N 25°47' W 080°10'0 0.0
2019-Feb-08 15:00N 25°47' W 080°10'0 0.0
2019-Feb-08 14:30N 25°47' W 080°10'0 0.0
2019-Feb-08 14:00N 25°47' W 080°10'0 0.0
2019-Feb-08 13:30N 25°47' W 080°10'0 0.0
2019-Feb-08 13:00N 25°47' W 080°10'0 0.0
2019-Feb-08 12:30N 25°47' W 080°10'0 0.0
2019-Feb-08 12:00N 25°47' W 080°10'0 0.0
2019-Feb-08 11:30N 25°47' W 080°10'0 0.0
2019-Feb-08 11:00N 25°47' W 080°10'0 0.0
2019-Feb-08 10:30N 25°47' W 080°10'1 1.1
2019-Feb-08 10:01N 25°47' W 080°11'3 5.7
2019-Feb-08 09:30N 25°46' W 080°08'510.0
2019-Feb-08 09:00N 25°47' W 080°03'4 7.4
2019-Feb-08 08:30N 25°49' W 079°59'4 7.6
2019-Feb-08 08:00N 25°51' W 079°56'4 7.3
2019-Feb-08 07:31N 25°53' W 079°52'4 7.3
2019-Feb-08 07:00N 25°55' W 079°49'4 7.2
2019-Feb-08 06:30N 25°56' W 079°45'4 7.4
2019-Feb-08 06:00N 25°58' W 079°42'4 7.5
2019-Feb-08 05:30N 26°00' W 079°38'4 7.7
2019-Feb-08 05:00N 26°02' W 079°35'714.2
2019-Feb-08 04:30N 26°06' W 079°28'816.2
2019-Feb-08 04:01N 26°11' W 079°21'16 0.8
2019-Feb-07 06:33N 25°55' W 079°23'122.8
2019-Feb-07 06:30N 25°54' W 079°24'1123.0
2019-Feb-07 06:00N 25°43' W 079°27'1122.8
2019-Feb-07 05:30N 25°32' W 079°31'7012.7
2019-Feb-07 00:00N 24°30' W 080°06'43818.0 050 / 131020.310.8 23.018.326.1
2019-Feb-05 23:40N 20°41' W 086°51'422.4
2019-Feb-05 23:30N 20°38' W 086°53'815.8
2019-Feb-05 23:00N 20°31' W 086°57'1 1.4
2019-Feb-05 22:28N 20°31' W 086°57'0 0.0
2019-Feb-05 21:58N 20°31' W 086°57'0 0.0
2019-Feb-05 21:28N 20°31' W 086°57'0 0.0
2019-Feb-05 20:58N 20°31' W 086°57'0 0.0
2019-Feb-05 20:28N 20°31' W 086°57'0 0.0
2019-Feb-05 19:58N 20°31' W 086°57'0 0.0
2019-Feb-05 19:28N 20°31' W 086°57'0 0.0
2019-Feb-05 18:58N 20°31' W 086°57'0 0.0
2019-Feb-05 18:28N 20°31' W 086°57'0 0.0
2019-Feb-05 17:55N 20°31' W 086°57'0 0.0
2019-Feb-05 17:28N 20°31' W 086°57'0 0.0
2019-Feb-05 16:58N 20°31' W 086°57'0 0.0
2019-Feb-05 16:28N 20°31' W 086°57'0 0.0
2019-Feb-05 15:58N 20°31' W 086°57'0 0.0
2019-Feb-05 14:13N 20°31' W 086°57'0 0.0
2019-Feb-05 13:58N 20°31' W 086°57'0 0.0
2019-Feb-05 13:28N 20°31' W 086°57'0 0.0
2019-Feb-05 12:58N 20°31' W 086°57'0 0.0
2019-Feb-05 12:28N 20°31' W 086°57'0 0.0
2019-Feb-05 11:58N 20°31' W 086°57'2 3.3
2019-Feb-05 11:30N 20°32' W 086°57'4 7.3
2019-Feb-05 11:00N 20°36' W 086°56'4 7.3
2019-Feb-05 10:30N 20°38' W 086°53'4 7.5
2019-Feb-05 09:58N 20°41' W 086°50'  

Dump ship's entire track history